Cambridgeboro, Vermont
Current Conditions -  °F | °C
As of 3:54 AM on Monday 24 Nov 2014 (Local Time) from KBTV Reporting Station
Few Clouds Few Clouds  
Wind Chill: 45°   Ceiling: Unl
Heat Index: 49°   Visibility: 10mi
Dew Point: 37°   Wind: 8mph
Humidity: 64%   Direction: 170°S
Pressure: 29.78"   Gusts: NA
Location:  44.6543°N, 72.8545°W
Report Text: KBTV 240854Z 17007KT 10SM FEW065 09/03 A2978 RMK AO2 SLP085 T00940028 58044
Loading
Personal Weather Stations






























Interactive Weather Map New forecast layout! Learn more

10-Day Weather Forecast

Advertisements
Track Severe Weather on mobile